createdAt,value
2019-03-29T00:01:48.937Z,32.48
2019-03-29T00:04:14.893Z,32.69
2019-03-29T00:06:40.989Z,32.18
2019-03-29T00:09:07.021Z,32.41
2019-03-29T00:11:33.027Z,32.30
2019-03-29T00:13:59.066Z,32.55
2019-03-29T00:16:25.917Z,32.52
2019-03-29T00:18:52.148Z,32.35
2019-03-29T00:21:18.109Z,33.09
2019-03-29T00:23:44.099Z,34.92
2019-03-29T00:26:10.113Z,35.55
2019-03-29T00:28:36.852Z,34.25
2019-03-29T00:31:02.955Z,34.71
2019-03-29T00:33:28.931Z,36.19
2019-03-29T00:35:54.930Z,35.92
2019-03-29T00:38:20.958Z,35.32
2019-03-29T00:40:46.903Z,36.25
2019-03-29T00:43:12.865Z,39.52
2019-03-29T00:45:38.875Z,38.38
2019-03-29T00:48:04.823Z,37.20
2019-03-29T00:50:30.866Z,38.29
2019-03-29T00:52:56.821Z,37.59
2019-03-29T00:55:22.827Z,37.82
2019-03-29T00:57:48.854Z,37.18
2019-03-29T01:00:14.866Z,36.94
2019-03-29T01:02:40.914Z,37.31
2019-03-29T01:05:06.941Z,37.66
2019-03-29T01:07:32.965Z,37.94
2019-03-29T01:09:58.911Z,37.33
2019-03-29T01:12:24.905Z,37.08
2019-03-29T01:14:50.931Z,37.30
2019-03-29T01:17:16.876Z,37.09
2019-03-29T01:19:42.916Z,36.65
2019-03-29T01:22:08.916Z,36.90
2019-03-29T01:24:34.976Z,37.42
2019-03-29T01:27:01.062Z,37.72
2019-03-29T01:29:27.084Z,36.79
2019-03-29T01:31:53.036Z,36.70
2019-03-29T01:34:19.059Z,36.88
2019-03-29T01:36:45.017Z,36.77
2019-03-29T01:39:11.074Z,36.39
2019-03-29T01:41:37.147Z,36.59
2019-03-29T01:44:03.122Z,37.05
2019-03-29T01:46:29.147Z,37.31
2019-03-29T01:48:55.177Z,37.32
2019-03-29T01:51:21.210Z,37.41
2019-03-29T01:53:47.156Z,37.45
2019-03-29T01:56:13.126Z,37.43
2019-03-29T01:58:39.162Z,38.12
2019-03-29T02:01:05.110Z,37.73
2019-03-29T02:03:31.064Z,38.22
2019-03-29T02:05:57.053Z,38.79
2019-03-29T02:08:35.202Z,39.35
2019-03-29T02:10:50.870Z,38.56
2019-03-29T02:13:16.924Z,38.76
2019-03-29T02:15:43.002Z,39.17
2019-03-29T02:18:09.036Z,39.13
2019-03-29T02:20:35.020Z,39.48
2019-03-29T02:23:00.993Z,39.05
2019-03-29T02:25:26.944Z,39.07
2019-03-29T02:27:53.095Z,39.32
2019-03-29T02:30:19.470Z,39.37
2019-03-29T02:32:45.428Z,39.54
2019-03-29T02:35:11.920Z,38.97
2019-03-29T02:37:38.058Z,38.79
2019-03-29T02:40:04.019Z,38.71
2019-03-29T02:42:29.963Z,38.14
2019-03-29T02:44:55.940Z,38.74
2019-03-29T02:47:22.102Z,38.21
2019-03-29T02:49:48.297Z,38.26
2019-03-29T02:52:14.316Z,37.75
2019-03-29T02:54:40.321Z,37.50
2019-03-29T02:57:06.349Z,37.62
2019-03-29T02:59:32.304Z,37.68
2019-03-29T03:01:58.282Z,37.19
2019-03-29T03:04:24.352Z,37.80
2019-03-29T03:06:50.300Z,38.06
2019-03-29T03:09:16.375Z,37.95
2019-03-29T03:11:42.354Z,38.58
2019-03-29T03:14:08.437Z,38.75
2019-03-29T03:16:34.527Z,37.57
2019-03-29T03:19:00.596Z,38.65
2019-03-29T03:21:26.604Z,37.32
2019-03-29T03:23:52.579Z,38.20
2019-03-29T03:26:18.541Z,37.43
2019-03-29T03:28:44.525Z,37.31
2019-03-29T03:31:10.594Z,37.60
2019-03-29T03:33:36.619Z,37.26
2019-03-29T03:36:02.669Z,37.42
2019-03-29T03:38:28.612Z,37.29
2019-03-29T03:40:54.614Z,37.29
2019-03-29T03:43:20.564Z,37.65
2019-03-29T03:45:46.521Z,39.42
2019-03-29T03:48:12.606Z,39.29
2019-03-29T03:50:38.659Z,39.70
2019-03-29T03:53:04.612Z,39.41
2019-03-29T03:55:30.748Z,38.82
2019-03-29T03:57:58.001Z,38.23
2019-03-29T04:00:24.235Z,38.45
2019-03-29T04:02:50.305Z,40.04
2019-03-29T04:05:16.250Z,38.38
2019-03-29T04:07:42.370Z,38.83
2019-03-29T04:10:08.443Z,39.00
2019-03-29T04:12:34.423Z,39.58
2019-03-29T04:15:00.469Z,39.30
2019-03-29T04:17:26.699Z,39.78
2019-03-29T04:19:52.761Z,38.76
2019-03-29T04:22:18.853Z,38.71
2019-03-29T04:24:44.892Z,38.23
2019-03-29T04:27:10.966Z,39.12
2019-03-29T04:29:36.932Z,38.49
2019-03-29T04:32:02.907Z,37.94
2019-03-29T04:34:29.066Z,39.40
2019-03-29T04:36:55.144Z,38.84
2019-03-29T04:39:21.114Z,39.04
2019-03-29T04:41:47.155Z,39.48
2019-03-29T04:44:13.234Z,39.20
2019-03-29T04:46:39.244Z,40.18
2019-03-29T04:49:05.289Z,40.38
2019-03-29T04:51:31.296Z,39.74
2019-03-29T04:53:57.367Z,40.12
2019-03-29T04:56:23.348Z,39.17
2019-03-29T04:58:49.357Z,39.00
2019-03-29T05:01:17.351Z,38.71
2019-03-29T05:03:43.195Z,38.62
2019-03-29T05:06:09.242Z,38.40
2019-03-29T05:08:35.193Z,38.33
2019-03-29T05:11:01.282Z,38.56
2019-03-29T05:13:27.245Z,38.27
2019-03-29T05:15:53.199Z,38.48
2019-03-29T05:18:19.207Z,38.80
2019-03-29T05:20:45.165Z,38.92
2019-03-29T05:23:11.288Z,39.11
2019-03-29T05:25:37.358Z,38.28
2019-03-29T05:28:03.428Z,38.76
2019-03-29T05:30:29.402Z,39.15
2019-03-29T05:32:55.389Z,38.26
2019-03-29T05:35:21.487Z,38.77
2019-03-29T05:37:47.533Z,38.99
2019-03-29T05:40:13.658Z,39.00
2019-03-29T05:42:39.622Z,38.63
2019-03-29T05:45:05.702Z,38.91
2019-03-29T05:47:31.667Z,38.75
2019-03-29T05:49:57.673Z,38.81
2019-03-29T05:52:23.606Z,39.17
2019-03-29T05:54:49.588Z,38.56
2019-03-29T05:57:15.597Z,37.85
2019-03-29T05:59:41.524Z,38.21
2019-03-29T06:02:07.500Z,37.96
2019-03-29T06:04:33.495Z,37.99
2019-03-29T06:06:59.567Z,38.88
2019-03-29T06:09:25.692Z,37.91
2019-03-29T06:11:51.774Z,38.28
2019-03-29T06:14:17.746Z,37.70
2019-03-29T06:16:43.829Z,37.47
2019-03-29T06:19:09.825Z,37.05
2019-03-29T06:21:35.775Z,37.89
2019-03-29T06:24:02.230Z,38.15
2019-03-29T06:26:28.253Z,37.87
2019-03-29T06:28:54.264Z,38.89
2019-03-29T06:31:20.326Z,37.64
2019-03-29T06:33:46.437Z,38.10
2019-03-29T06:36:12.395Z,37.24
2019-03-29T06:38:38.471Z,37.74
2019-03-29T06:41:04.478Z,37.71
2019-03-29T06:43:30.503Z,37.20
2019-03-29T06:45:56.543Z,37.50
2019-03-29T06:48:22.680Z,37.73
2019-03-29T06:50:48.847Z,38.14
2019-03-29T06:53:15.059Z,37.55
2019-03-29T06:55:41.014Z,36.86
2019-03-29T06:58:06.966Z,35.85
2019-03-29T07:00:33.011Z,35.93
2019-03-29T07:02:59.086Z,35.30
2019-03-29T07:05:25.176Z,35.54
2019-03-29T07:07:51.302Z,34.89
2019-03-29T07:10:17.260Z,35.30
2019-03-29T07:12:43.282Z,35.12
2019-03-29T07:15:09.351Z,35.30
2019-03-29T07:17:35.431Z,34.94
2019-03-29T07:20:01.615Z,34.61
2019-03-29T07:22:27.645Z,34.21
2019-03-29T07:24:53.597Z,33.96
2019-03-29T07:27:19.557Z,32.87
2019-03-29T07:29:45.617Z,32.63
2019-03-29T07:32:11.640Z,32.81
2019-03-29T07:34:37.808Z,32.69
2019-03-29T07:37:05.777Z,32.21
2019-03-29T07:39:31.797Z,31.82
2019-03-29T07:41:58.024Z,31.64
2019-03-29T07:44:23.994Z,31.62
2019-03-29T07:46:50.056Z,30.45
2019-03-29T07:49:16.115Z,29.91
2019-03-29T07:51:42.146Z,30.10
2019-03-29T07:54:08.213Z,28.62
2019-03-29T07:56:34.297Z,27.69
2019-03-29T08:13:24.253Z,26.01
2019-03-29T08:15:50.299Z,25.84
2019-03-29T08:18:16.365Z,26.21
2019-03-29T08:20:44.382Z,25.49
2019-03-29T08:23:10.304Z,25.61
2019-03-29T08:25:36.317Z,25.13
2019-03-29T08:28:02.362Z,24.58
2019-03-29T08:30:28.369Z,23.36
2019-03-29T08:32:54.348Z,23.79
2019-03-29T08:35:20.495Z,23.22
2019-03-29T08:37:46.479Z,23.40
2019-03-29T08:40:12.459Z,23.25
2019-03-29T08:42:38.502Z,23.10
2019-03-29T08:45:04.527Z,23.07
2019-03-29T08:47:30.530Z,22.67
2019-03-29T08:49:56.587Z,22.76
2019-03-29T08:52:22.649Z,22.57
2019-03-29T08:54:51.200Z,22.59
2019-03-29T08:57:16.633Z,22.11
2019-03-29T08:59:42.659Z,21.65
2019-03-29T09:02:08.775Z,21.39
2019-03-29T09:04:34.863Z,21.65
2019-03-29T09:07:00.893Z,21.56
2019-03-29T09:09:26.934Z,22.13
2019-03-29T09:11:53.001Z,22.06
2019-03-29T09:14:19.095Z,21.29
2019-03-29T09:16:45.213Z,20.76
2019-03-29T09:19:11.249Z,21.48
2019-03-29T09:21:37.273Z,21.37
2019-03-29T09:24:03.262Z,20.69
2019-03-29T09:26:29.228Z,20.64
2019-03-29T09:28:55.214Z,20.60
2019-03-29T09:31:21.288Z,20.13
2019-03-29T09:33:47.320Z,20.73
2019-03-29T09:36:13.424Z,20.32
2019-03-29T09:38:39.417Z,19.69
2019-03-29T09:41:05.481Z,20.32
2019-03-29T09:43:31.455Z,20.28
2019-03-29T09:45:57.571Z,19.73
2019-03-29T09:48:23.558Z,19.59
2019-03-29T09:50:50.905Z,19.49
2019-03-29T09:53:17.392Z,19.33
2019-03-29T09:55:45.701Z,19.00
2019-03-29T09:58:11.498Z,18.95
2019-03-29T10:00:37.465Z,18.17
2019-03-29T10:03:03.434Z,18.21
2019-03-29T10:05:31.332Z,18.06
2019-03-29T10:07:57.550Z,17.78
2019-03-29T10:10:23.606Z,17.78
2019-03-29T10:12:49.753Z,18.15
2019-03-29T10:15:15.724Z,18.15
2019-03-29T10:17:41.769Z,18.05
2019-03-29T10:20:07.765Z,18.24
2019-03-29T10:22:33.724Z,18.22
2019-03-29T10:25:02.099Z,17.94
2019-03-29T10:27:27.612Z,17.87
2019-03-29T10:29:53.618Z,17.87
2019-03-29T10:32:19.686Z,17.94
2019-03-29T10:34:45.723Z,17.49
2019-03-29T10:37:11.720Z,17.54
2019-03-29T10:39:37.754Z,17.27
2019-03-29T10:42:03.751Z,17.59
2019-03-29T10:44:30.011Z,17.49
2019-03-29T10:46:56.503Z,17.09
2019-03-29T10:49:22.604Z,16.81
2019-03-29T10:51:48.755Z,16.79
2019-03-29T10:54:14.853Z,16.28
2019-03-29T10:56:40.975Z,16.69
2019-03-29T10:59:07.102Z,16.37
2019-03-29T11:01:33.115Z,16.70
2019-03-29T11:03:59.163Z,17.28
2019-03-29T11:06:25.119Z,17.06
2019-03-29T11:08:51.117Z,16.71
2019-03-29T11:11:17.232Z,16.35
2019-03-29T11:13:43.253Z,16.45
2019-03-29T11:16:09.295Z,16.49
2019-03-29T11:18:35.329Z,15.94
2019-03-29T11:21:01.405Z,16.14
2019-03-29T11:23:27.453Z,15.65
2019-03-29T11:25:53.455Z,15.84
2019-03-29T11:28:19.508Z,15.77
2019-03-29T11:30:45.647Z,15.71
2019-03-29T11:33:12.015Z,15.59
2019-03-29T11:35:38.125Z,15.70
2019-03-29T11:38:04.242Z,15.80
2019-03-29T11:40:30.323Z,15.70
2019-03-29T11:42:56.610Z,15.99
2019-03-29T11:45:22.617Z,15.58
2019-03-29T11:47:48.721Z,14.94
2019-03-29T11:50:14.738Z,15.13
2019-03-29T11:52:40.955Z,15.37
2019-03-29T11:55:06.970Z,15.05
2019-03-29T11:57:33.057Z,14.81
2019-03-29T11:59:59.053Z,14.75
2019-03-29T12:02:31.423Z,15.09
2019-03-29T12:04:53.055Z,14.61
2019-03-29T12:07:19.187Z,14.27
2019-03-29T12:09:45.177Z,14.57
2019-03-29T12:12:11.194Z,14.48
2019-03-29T12:14:37.172Z,14.13
2019-03-29T12:17:03.372Z,14.44
2019-03-29T12:19:29.311Z,14.30
2019-03-29T12:21:55.345Z,14.36
2019-03-29T12:24:21.389Z,14.43
2019-03-29T12:26:47.384Z,14.87
2019-03-29T12:29:13.377Z,13.91
2019-03-29T12:31:39.500Z,13.63
2019-03-29T12:34:05.818Z,13.69
2019-03-29T12:36:31.905Z,13.52
2019-03-29T12:38:57.969Z,13.57
2019-03-29T12:41:23.937Z,14.38
2019-03-29T12:43:55.992Z,14.35
2019-03-29T12:46:17.972Z,14.00
2019-03-29T12:48:44.082Z,13.44
2019-03-29T12:51:10.063Z,12.80
2019-03-29T12:53:36.132Z,13.22
2019-03-29T12:56:02.099Z,13.82
2019-03-29T12:58:28.224Z,13.57
2019-03-29T13:00:54.288Z,13.13
2019-03-29T13:03:20.271Z,13.31
2019-03-29T13:05:46.455Z,13.25
2019-03-29T13:08:12.694Z,13.52
2019-03-29T13:10:38.713Z,13.70
2019-03-29T13:13:04.869Z,14.00
2019-03-29T13:15:30.879Z,14.14
2019-03-29T13:17:56.979Z,13.76
2019-03-29T13:20:23.050Z,13.88
2019-03-29T13:22:49.168Z,13.70
2019-03-29T13:25:15.197Z,14.55
2019-03-29T13:27:41.298Z,14.96
2019-03-29T13:30:07.377Z,15.25
2019-03-29T13:32:33.722Z,15.07
2019-03-29T13:35:00.013Z,14.97
2019-03-29T13:37:25.984Z,14.54
2019-03-29T13:39:52.067Z,14.67
2019-03-29T13:42:18.086Z,14.72
2019-03-29T13:44:44.099Z,15.20
2019-03-29T13:47:10.258Z,15.35
2019-03-29T13:49:36.246Z,15.49
2019-03-29T13:52:02.276Z,15.69
2019-03-29T13:54:28.269Z,15.64
2019-03-29T13:56:54.334Z,16.59
2019-03-29T13:59:20.359Z,17.19
2019-03-29T14:01:46.479Z,18.36
2019-03-29T14:04:12.537Z,18.66
2019-03-29T14:06:38.483Z,18.75
2019-03-29T14:09:04.558Z,19.20
2019-03-29T14:11:30.633Z,18.81
2019-03-29T14:13:56.616Z,18.44
2019-03-29T14:16:22.592Z,18.17
2019-03-29T14:18:48.594Z,18.25
2019-03-29T14:21:14.629Z,18.39
2019-03-29T14:23:40.587Z,18.18
2019-03-29T14:26:06.739Z,18.05
2019-03-29T14:28:32.729Z,17.68
2019-03-29T14:30:58.788Z,17.51
2019-03-29T14:33:24.770Z,17.59
2019-03-29T14:35:50.828Z,17.33
2019-03-29T14:38:16.898Z,17.35
2019-03-29T14:40:42.995Z,17.17
2019-03-29T14:43:08.986Z,17.62
2019-03-29T14:45:34.954Z,17.92
2019-03-29T14:48:01.064Z,17.57
2019-03-29T14:50:27.086Z,17.35
2019-03-29T14:52:53.137Z,17.31
2019-03-29T14:55:19.136Z,17.35
2019-03-29T14:57:45.236Z,17.09
2019-03-29T15:00:11.704Z,17.31
2019-03-29T15:02:37.768Z,17.52
2019-03-29T15:05:03.815Z,17.34
2019-03-29T15:07:29.937Z,17.32
2019-03-29T15:09:56.132Z,16.55
2019-03-29T15:12:22.241Z,16.35
2019-03-29T15:14:48.207Z,16.67
2019-03-29T15:17:14.319Z,16.53
2019-03-29T15:19:40.295Z,16.52
2019-03-29T15:22:06.225Z,16.31
2019-03-29T15:24:32.204Z,16.43
2019-03-29T15:26:58.266Z,16.21
2019-03-29T15:29:24.237Z,16.46
2019-03-29T15:31:50.237Z,16.49
2019-03-29T15:34:16.276Z,16.30
2019-03-29T15:36:42.318Z,16.33
2019-03-29T15:39:08.324Z,16.27
2019-03-29T15:41:34.393Z,16.15
2019-03-29T15:44:00.384Z,16.38
2019-03-29T15:46:26.367Z,16.96
2019-03-29T15:48:52.435Z,17.99
2019-03-29T15:51:18.402Z,18.05
2019-03-29T15:53:44.388Z,18.15
2019-03-29T15:56:10.417Z,18.46
2019-03-29T15:58:36.528Z,18.60
2019-03-29T16:01:02.550Z,18.91
2019-03-29T16:03:28.573Z,19.45
2019-03-29T16:05:54.569Z,19.57
2019-03-29T16:08:20.648Z,20.43
2019-03-29T16:10:46.664Z,20.65
2019-03-29T16:13:12.655Z,20.83
2019-03-29T16:15:38.658Z,21.26
2019-03-29T16:18:04.742Z,21.70
2019-03-29T16:20:30.846Z,21.67
2019-03-29T16:22:56.880Z,21.87
2019-03-29T16:25:22.861Z,22.78
2019-03-29T16:27:48.935Z,22.78
2019-03-29T16:30:15.109Z,23.59
2019-03-29T16:32:41.222Z,23.69
2019-03-29T16:35:07.321Z,24.07
2019-03-29T16:37:33.460Z,24.77
2019-03-29T16:39:59.684Z,24.72
2019-03-29T16:42:25.713Z,24.61
2019-03-29T16:44:51.899Z,24.68
2019-03-29T16:47:17.948Z,24.79
2019-03-29T16:49:43.948Z,25.29
2019-03-29T16:52:10.019Z,25.09
2019-03-29T16:54:36.168Z,25.31
2019-03-29T16:57:02.245Z,25.86
2019-03-29T16:59:28.313Z,25.75
2019-03-29T17:01:55.576Z,25.76
2019-03-29T17:04:21.766Z,26.39
2019-03-29T17:06:47.724Z,26.56
2019-03-29T17:09:13.808Z,26.51
2019-03-29T17:11:40.021Z,26.63
2019-03-29T17:14:06.044Z,27.12
2019-03-29T17:16:32.091Z,27.68
2019-03-29T17:18:58.060Z,27.80
2019-03-29T17:21:24.166Z,28.64
2019-03-29T17:23:52.733Z,28.33
2019-03-29T17:26:18.073Z,28.90
2019-03-29T17:28:44.082Z,28.90
2019-03-29T17:31:11.556Z,28.60
2019-03-29T17:33:37.571Z,29.17
2019-03-29T17:36:06.426Z,29.29
2019-03-29T17:38:32.489Z,29.83
2019-03-29T17:40:58.666Z,29.40
2019-03-29T17:43:24.627Z,30.03
2019-03-29T17:45:50.653Z,30.10
2019-03-29T17:48:16.645Z,30.57
2019-03-29T17:50:42.720Z,29.55
2019-03-29T17:53:08.689Z,29.47
2019-03-29T17:55:34.710Z,29.93
2019-03-29T17:58:00.803Z,29.51
2019-03-29T18:00:26.920Z,29.35
2019-03-29T18:02:52.920Z,29.67
2019-03-29T18:05:18.894Z,29.77
2019-03-29T18:07:44.975Z,29.74
2019-03-29T18:10:10.951Z,29.91
2019-03-29T18:12:37.086Z,29.82
2019-03-29T18:15:03.313Z,29.81
2019-03-29T18:17:29.383Z,30.27
2019-03-29T18:19:55.438Z,30.20
2019-03-29T18:22:21.452Z,29.93
2019-03-29T18:24:47.422Z,30.32
2019-03-29T18:27:13.428Z,30.16
2019-03-29T18:29:39.462Z,29.79
2019-03-29T18:32:05.587Z,29.97
2019-03-29T18:34:31.547Z,30.52
2019-03-29T18:36:57.588Z,30.57
2019-03-29T18:39:23.569Z,30.17
2019-03-29T18:41:49.627Z,30.67
2019-03-29T18:44:15.754Z,32.11
2019-03-29T18:46:44.902Z,32.46
2019-03-29T18:49:09.669Z,32.96
2019-03-29T18:51:35.647Z,33.12
2019-03-29T18:54:01.652Z,32.64
2019-03-29T18:56:27.750Z,32.51
2019-03-29T18:58:53.806Z,32.05
2019-03-29T19:04:00.689Z,32.00
2019-03-29T19:06:28.456Z,31.66
2019-03-29T19:08:56.369Z,31.26
2019-03-29T19:11:24.234Z,31.35
2019-03-29T19:13:51.978Z,31.23
2019-03-29T19:16:19.712Z,31.45
2019-03-29T19:18:47.462Z,31.16
2019-03-29T19:21:15.309Z,31.78
2019-03-29T19:23:43.196Z,31.55
2019-03-29T19:26:10.958Z,31.24
2019-03-29T19:28:38.707Z,31.65
2019-03-29T19:31:06.453Z,31.72
2019-03-29T19:33:34.175Z,31.98
2019-03-29T19:36:01.883Z,32.37
2019-03-29T19:38:29.666Z,32.73
2019-03-29T19:40:57.391Z,33.51
2019-03-29T19:43:25.300Z,33.06
2019-03-29T19:45:53.292Z,32.40
2019-03-29T19:48:21.023Z,32.86
2019-03-29T19:50:48.814Z,32.44
2019-03-29T19:53:16.637Z,32.59
2019-03-29T19:55:44.547Z,32.33
2019-03-29T19:58:12.483Z,31.77
2019-03-29T20:00:40.498Z,32.28
2019-03-29T20:03:08.336Z,32.03
2019-03-29T20:05:36.107Z,32.42
2019-03-29T20:08:04.056Z,32.36
2019-03-29T20:10:31.901Z,32.29
2019-03-29T20:12:59.707Z,32.66
2019-03-29T20:15:27.439Z,32.53
2019-03-29T20:17:55.253Z,32.23
2019-03-29T20:20:22.957Z,32.71
2019-03-29T20:22:50.709Z,32.88
2019-03-29T20:25:18.567Z,32.89
2019-03-29T20:27:46.403Z,32.77
2019-03-29T20:30:14.109Z,32.43
2019-03-29T20:32:41.965Z,32.49
2019-03-29T20:35:09.831Z,32.92
2019-03-29T20:37:37.603Z,32.49
2019-03-29T20:40:05.464Z,32.67
2019-03-29T20:42:33.236Z,32.94
2019-03-29T20:45:00.974Z,33.06
2019-03-29T20:47:41.449Z,32.98
2019-03-29T20:49:58.344Z,33.40
2019-03-29T20:52:26.522Z,33.28
2019-03-29T20:54:54.389Z,33.49
2019-03-29T20:57:22.233Z,33.51
2019-03-29T20:59:50.060Z,33.68
2019-03-29T21:02:18.236Z,33.97
2019-03-29T21:04:46.144Z,33.96
2019-03-29T21:07:13.935Z,34.10
2019-03-29T21:09:41.701Z,34.38
2019-03-29T21:12:09.522Z,33.71
2019-03-29T21:14:37.261Z,34.09
2019-03-29T21:17:05.082Z,34.00
2019-03-29T21:19:32.895Z,34.59
2019-03-29T21:22:00.688Z,34.32
2019-03-29T21:24:28.540Z,34.36
2019-03-29T21:26:56.530Z,34.98
2019-03-29T21:29:24.282Z,34.58
2019-03-29T21:31:52.025Z,35.27
2019-03-29T21:34:19.827Z,36.33
2019-03-29T21:36:47.640Z,36.90
2019-03-29T21:39:15.387Z,36.90
2019-03-29T21:41:43.120Z,36.65
2019-03-29T21:44:11.170Z,36.10
2019-03-29T21:46:38.916Z,36.02
2019-03-29T21:49:06.761Z,35.99
2019-03-29T21:51:34.615Z,35.79
2019-03-29T21:54:02.442Z,36.60
2019-03-29T21:56:30.337Z,35.74
2019-03-29T21:58:58.096Z,36.40
2019-03-29T22:01:26.006Z,36.37
2019-03-29T22:03:53.764Z,35.70
2019-03-29T22:06:21.603Z,36.26
2019-03-29T22:08:49.469Z,35.59
2019-03-29T22:11:17.411Z,36.76
2019-03-29T22:13:45.259Z,36.64
2019-03-29T22:16:13.006Z,36.81
2019-03-29T22:18:40.811Z,39.69
2019-03-29T22:21:08.664Z,40.09
2019-03-29T22:23:36.484Z,40.09
2019-03-29T22:26:04.469Z,42.07
2019-03-29T22:28:32.327Z,41.24
2019-03-29T22:31:00.052Z,40.98
2019-03-29T22:33:27.830Z,39.04
2019-03-29T22:35:55.610Z,39.68
2019-03-29T22:38:23.346Z,40.25
2019-03-29T22:40:51.135Z,39.24
2019-03-29T22:43:18.863Z,38.94
2019-03-29T22:45:47.318Z,38.94
2019-03-29T22:48:15.228Z,38.26
2019-03-29T22:50:43.012Z,37.37
2019-03-29T22:53:10.794Z,37.37
2019-03-29T22:55:38.867Z,38.21
2019-03-29T22:58:06.619Z,38.18
2019-03-29T23:00:38.751Z,38.18
2019-03-29T23:03:06.579Z,37.91
2019-03-29T23:05:34.357Z,39.44
2019-03-29T23:08:02.207Z,38.04
2019-03-29T23:10:30.090Z,38.76
2019-03-29T23:12:57.947Z,37.80
2019-03-29T23:15:25.729Z,37.36
2019-03-29T23:17:53.579Z,37.36
2019-03-29T23:20:21.353Z,37.70
2019-03-29T23:22:49.228Z,38.11
2019-03-29T23:25:17.175Z,39.36
2019-03-29T23:27:44.897Z,38.61
2019-03-29T23:30:12.638Z,38.45
2019-03-29T23:32:40.485Z,37.25
2019-03-29T23:35:08.255Z,39.36
2019-03-29T23:37:36.021Z,38.14
2019-03-29T23:40:04.044Z,37.98
2019-03-29T23:42:31.459Z,37.98
2019-03-29T23:44:59.225Z,37.88
2019-03-29T23:47:26.989Z,37.84
2019-03-29T23:49:54.690Z,38.19
2019-03-29T23:52:22.402Z,38.82
2019-03-29T23:54:50.163Z,39.43
2019-03-29T23:57:17.888Z,39.85
2019-03-29T23:59:46.000Z,40.58
